createdAt,value
2022-08-19T00:02:05.149Z,1.87
2022-08-19T00:04:36.082Z,1.57
2022-08-19T00:07:06.905Z,1.57
2022-08-19T00:09:35.004Z,1.83
2022-08-19T00:12:02.395Z,1.67
2022-08-19T00:14:30.866Z,1.80
2022-08-19T00:16:58.267Z,1.67
2022-08-19T00:19:27.169Z,1.87
2022-08-19T00:21:54.450Z,1.80
2022-08-19T00:24:21.833Z,1.50
2022-08-19T00:26:49.706Z,1.80
2022-08-19T00:29:19.727Z,1.40
2022-08-19T00:31:48.012Z,1.60
2022-08-19T00:34:18.330Z,1.73
2022-08-19T00:36:48.393Z,1.50
2022-08-19T00:39:17.864Z,1.40
2022-08-19T00:41:47.892Z,1.60
2022-08-19T00:44:26.913Z,1.50
2022-08-19T00:46:58.840Z,1.77
2022-08-19T00:49:37.573Z,1.70
2022-08-19T00:52:17.720Z,1.57
2022-08-19T00:54:50.762Z,1.83
2022-08-19T00:57:28.918Z,1.50
2022-08-19T01:00:02.438Z,1.60
2022-08-19T01:02:32.799Z,1.90
2022-08-19T01:05:09.130Z,1.60
2022-08-19T01:07:39.883Z,1.97
2022-08-19T01:10:11.633Z,1.60
2022-08-19T01:12:41.279Z,1.80
2022-08-19T01:15:13.698Z,1.50
2022-08-19T01:17:43.063Z,1.63
2022-08-19T01:20:22.203Z,1.50
2022-08-19T01:22:59.368Z,1.70
2022-08-19T01:25:33.291Z,1.73
2022-08-19T01:28:06.396Z,2.70
2022-08-19T01:30:38.453Z,2.60
2022-08-19T01:33:05.711Z,2.73
2022-08-19T01:35:33.861Z,3.07
2022-08-19T01:38:05.399Z,3.10
2022-08-19T01:40:35.546Z,2.80
2022-08-19T01:43:04.081Z,2.70
2022-08-19T01:45:35.396Z,2.40
2022-08-19T01:48:05.145Z,2.30
2022-08-19T01:50:35.103Z,4.90
2022-08-19T01:53:08.149Z,4.20
2022-08-19T01:55:40.911Z,3.43
2022-08-19T01:58:19.755Z,3.27
2022-08-19T02:00:47.073Z,3.17
2022-08-19T02:03:14.866Z,2.97
2022-08-19T02:05:43.180Z,2.60
2022-08-19T02:08:11.537Z,3.00
2022-08-19T02:10:45.616Z,3.67
2022-08-19T02:13:13.640Z,3.97
2022-08-19T02:15:41.536Z,3.73
2022-08-19T02:18:08.949Z,3.57
2022-08-19T02:20:38.412Z,3.23
2022-08-19T02:23:06.321Z,3.50
2022-08-19T02:25:43.127Z,3.00
2022-08-19T02:28:10.284Z,2.97
2022-08-19T02:30:37.523Z,2.57
2022-08-19T02:33:05.771Z,2.93
2022-08-19T02:35:33.121Z,3.00
2022-08-19T02:38:00.759Z,3.13
2022-08-19T02:40:30.293Z,2.60
2022-08-19T02:42:57.799Z,2.23
2022-08-19T02:45:25.027Z,2.00
2022-08-19T02:47:52.264Z,2.27
2022-08-19T02:50:19.674Z,1.50
2022-08-19T02:52:46.888Z,1.77
2022-08-19T02:55:14.095Z,2.07
2022-08-19T02:57:41.391Z,1.87
2022-08-19T03:00:10.037Z,1.70
2022-08-19T03:02:37.293Z,1.83
2022-08-19T03:05:06.615Z,1.80
2022-08-19T03:07:33.979Z,1.70
2022-08-19T03:10:01.352Z,1.83
2022-08-19T03:12:28.740Z,2.10
2022-08-19T03:14:56.020Z,2.10
2022-08-19T03:17:23.548Z,1.67
2022-08-19T03:19:50.716Z,1.60
2022-08-19T03:22:17.909Z,1.67
2022-08-19T03:24:45.128Z,1.57
2022-08-19T03:27:12.279Z,1.80
2022-08-19T03:29:43.010Z,1.47
2022-08-19T03:32:27.894Z,1.87
2022-08-19T03:34:58.983Z,1.70
2022-08-19T03:37:26.247Z,1.70
2022-08-19T03:39:53.532Z,1.60
2022-08-19T03:42:38.717Z,1.83
2022-08-19T03:45:08.619Z,2.07
2022-08-19T03:47:35.832Z,1.60
2022-08-19T03:50:03.802Z,1.50
2022-08-19T03:52:31.496Z,1.60
2022-08-19T03:54:58.680Z,1.70
2022-08-19T03:57:31.775Z,1.60
2022-08-19T04:00:13.149Z,2.20
2022-08-19T04:02:42.685Z,2.40
2022-08-19T04:05:10.145Z,2.90
2022-08-19T04:07:37.374Z,2.80
2022-08-19T04:10:05.645Z,2.20
2022-08-19T04:12:33.485Z,2.23
2022-08-19T04:15:00.692Z,2.00
2022-08-19T04:17:27.892Z,2.60
2022-08-19T04:19:55.114Z,3.33
2022-08-19T04:22:22.319Z,2.07
2022-08-19T04:24:49.573Z,2.60
2022-08-19T04:27:16.804Z,2.20
2022-08-19T04:29:44.028Z,2.30
2022-08-19T04:32:12.059Z,2.47
2022-08-19T04:35:02.002Z,2.03
2022-08-19T04:37:35.042Z,1.73
2022-08-19T04:40:05.753Z,2.10
2022-08-19T04:42:33.235Z,1.80
2022-08-19T04:45:00.881Z,1.70
2022-08-19T04:47:48.060Z,1.83
2022-08-19T04:50:16.124Z,2.00
2022-08-19T04:52:43.470Z,1.97
2022-08-19T04:55:12.532Z,1.83
2022-08-19T04:57:39.707Z,2.07
2022-08-19T05:00:09.781Z,2.47
2022-08-19T05:02:38.642Z,2.03
2022-08-19T05:05:07.034Z,1.60
2022-08-19T05:07:34.535Z,1.90
2022-08-19T05:10:01.968Z,2.10
2022-08-19T05:12:29.567Z,1.73
2022-08-19T05:14:59.570Z,1.77
2022-08-19T05:17:32.101Z,1.63
2022-08-19T05:20:00.727Z,1.20
2022-08-19T05:22:27.925Z,2.00
2022-08-19T05:25:11.630Z,2.00
2022-08-19T05:27:39.790Z,1.70
2022-08-19T05:30:08.269Z,2.00
2022-08-19T05:32:35.889Z,1.60
2022-08-19T05:35:04.458Z,1.80
2022-08-19T05:37:31.717Z,2.00
2022-08-19T05:39:59.027Z,2.00
2022-08-19T05:42:26.272Z,1.70
2022-08-19T05:44:53.507Z,1.70
2022-08-19T05:47:21.210Z,1.57
2022-08-19T05:49:51.404Z,1.50
2022-08-19T05:52:26.067Z,2.00
2022-08-19T05:54:55.304Z,1.70
2022-08-19T05:57:22.975Z,2.03
2022-08-19T05:59:53.088Z,1.80
2022-08-19T06:02:30.198Z,1.63
2022-08-19T06:04:57.525Z,1.67
2022-08-19T06:07:24.833Z,3.77
2022-08-19T06:09:59.639Z,5.13
2022-08-19T06:12:33.197Z,3.60
2022-08-19T06:15:04.805Z,2.03
2022-08-19T06:17:32.776Z,1.80
2022-08-19T06:20:00.668Z,1.90
2022-08-19T06:22:29.200Z,2.80
2022-08-19T06:24:57.488Z,7.23
2022-08-19T06:27:24.775Z,6.07
2022-08-19T06:29:52.018Z,5.47
2022-08-19T06:32:19.681Z,3.00
2022-08-19T06:34:47.495Z,2.50
2022-08-19T06:37:15.691Z,1.70
2022-08-19T06:39:45.681Z,1.50
2022-08-19T06:42:14.369Z,1.37
2022-08-19T06:44:48.065Z,2.17
2022-08-19T06:47:23.375Z,1.50
2022-08-19T06:50:00.899Z,2.10
2022-08-19T06:52:29.430Z,2.60
2022-08-19T06:54:56.978Z,3.00
2022-08-19T06:57:27.825Z,2.90
2022-08-19T06:59:55.089Z,2.70
2022-08-19T07:02:22.296Z,2.20
2022-08-19T07:04:52.770Z,2.00
2022-08-19T07:07:24.553Z,1.97
2022-08-19T07:09:59.085Z,1.83
2022-08-19T07:12:32.029Z,2.07
2022-08-19T07:14:59.799Z,1.70
2022-08-19T07:17:28.681Z,1.73
2022-08-19T07:19:55.952Z,2.10
2022-08-19T07:22:24.377Z,1.90
2022-08-19T07:24:52.846Z,1.70
2022-08-19T07:27:24.363Z,1.90
2022-08-19T07:29:57.566Z,1.80
2022-08-19T07:32:27.425Z,1.90
2022-08-19T07:34:56.434Z,1.40
2022-08-19T07:37:29.396Z,1.50
2022-08-19T07:39:59.506Z,1.60
2022-08-19T07:42:26.937Z,1.60
2022-08-19T07:44:54.213Z,1.50
2022-08-19T07:47:50.464Z,1.53
2022-08-19T07:50:11.540Z,1.50
2022-08-19T07:52:39.905Z,1.57
2022-08-19T07:55:40.428Z,1.90
2022-08-19T07:57:58.527Z,1.40
2022-08-19T08:00:26.213Z,1.30
2022-08-19T08:02:55.738Z,1.40
2022-08-19T08:05:25.419Z,1.73
2022-08-19T08:07:52.585Z,1.30
2022-08-19T08:10:21.314Z,1.60
2022-08-19T08:13:01.854Z,1.53
2022-08-19T08:15:41.532Z,1.70
2022-08-19T08:18:11.603Z,1.30
2022-08-19T08:20:39.557Z,1.40
2022-08-19T08:23:06.747Z,1.50
2022-08-19T08:25:35.870Z,1.40
2022-08-19T08:28:05.287Z,1.20
2022-08-19T08:30:33.153Z,1.50
2022-08-19T08:33:00.815Z,1.43
2022-08-19T08:35:31.289Z,1.40
2022-08-19T08:37:58.677Z,1.40
2022-08-19T08:40:47.904Z,1.30
2022-08-19T08:43:35.884Z,1.40
2022-08-19T08:46:30.420Z,1.70
2022-08-19T08:49:20.717Z,1.30
2022-08-19T08:52:01.348Z,1.40
2022-08-19T08:54:40.672Z,1.67
2022-08-19T08:57:33.710Z,1.27
2022-08-19T09:00:15.291Z,1.38
2022-08-19T09:02:45.293Z,1.55
2022-08-19T09:05:22.374Z,1.53
2022-08-19T09:08:06.835Z,1.40
2022-08-19T09:10:55.584Z,1.37
2022-08-19T09:13:37.893Z,1.40
2022-08-19T09:16:13.024Z,1.67
2022-08-19T09:18:55.207Z,1.60
2022-08-19T09:21:30.604Z,1.40
2022-08-19T09:24:04.517Z,1.48
2022-08-19T09:26:47.248Z,1.40
2022-08-19T09:29:15.768Z,1.50
2022-08-19T09:31:45.058Z,1.30
2022-08-19T09:34:21.080Z,1.50
2022-08-19T09:36:50.132Z,1.40
2022-08-19T09:39:17.372Z,1.50
2022-08-19T09:41:47.259Z,1.73
2022-08-19T09:44:16.806Z,1.27
2022-08-19T09:46:45.580Z,1.40
2022-08-19T09:49:12.777Z,1.40
2022-08-19T09:51:40.710Z,1.50
2022-08-19T09:54:11.396Z,1.30
2022-08-19T09:56:38.751Z,1.40
2022-08-19T09:59:09.589Z,1.30
2022-08-19T10:01:36.964Z,1.33
2022-08-19T10:04:08.958Z,1.55
2022-08-19T10:06:47.146Z,1.80
2022-08-19T10:09:18.263Z,1.40
2022-08-19T10:12:02.918Z,1.27
2022-08-19T10:14:31.171Z,1.55
2022-08-19T10:16:59.147Z,1.30
2022-08-19T10:19:27.390Z,1.33
2022-08-19T10:21:58.596Z,1.38
2022-08-19T10:24:28.307Z,1.55
2022-08-19T10:26:58.805Z,1.25
2022-08-19T10:29:33.011Z,1.20
2022-08-19T10:32:04.136Z,1.42
2022-08-19T10:34:32.202Z,1.83
2022-08-19T10:37:01.734Z,1.50
2022-08-19T10:39:32.828Z,1.50
2022-08-19T10:42:11.802Z,1.48
2022-08-19T10:44:39.210Z,1.50
2022-08-19T10:47:17.336Z,1.40
2022-08-19T10:49:54.702Z,1.65
2022-08-19T10:52:27.678Z,1.52
2022-08-19T10:54:59.905Z,1.35
2022-08-19T10:57:52.503Z,1.45
2022-08-19T11:00:23.800Z,1.50
2022-08-19T11:02:51.729Z,1.55
2022-08-19T11:05:20.047Z,1.48
2022-08-19T11:07:47.361Z,1.67
2022-08-19T11:10:20.868Z,1.73
2022-08-19T11:12:48.773Z,1.55
2022-08-19T11:15:16.550Z,1.50
2022-08-19T11:17:44.019Z,1.57
2022-08-19T11:20:16.173Z,1.50
2022-08-19T11:22:43.526Z,1.80
2022-08-19T11:25:12.249Z,1.48
2022-08-19T11:27:43.784Z,1.63
2022-08-19T11:30:14.360Z,1.60
2022-08-19T11:32:48.612Z,1.75
2022-08-19T11:35:17.168Z,1.63
2022-08-19T11:37:44.511Z,1.65
2022-08-19T11:40:12.763Z,1.50
2022-08-19T11:42:40.144Z,1.90
2022-08-19T11:45:08.328Z,1.60
2022-08-19T11:47:35.583Z,1.55
2022-08-19T11:50:03.073Z,1.20
2022-08-19T11:52:30.273Z,1.42
2022-08-19T11:54:57.429Z,1.60
2022-08-19T11:57:24.576Z,1.30
2022-08-19T11:59:54.828Z,1.70
2022-08-19T12:02:22.079Z,1.55
2022-08-19T12:04:49.265Z,1.40
2022-08-19T12:07:16.733Z,1.42
2022-08-19T12:09:44.062Z,1.95
2022-08-19T12:12:13.277Z,1.52
2022-08-19T12:14:40.516Z,1.30
2022-08-19T12:17:07.804Z,1.70
2022-08-19T12:19:37.538Z,1.42
2022-08-19T12:22:04.878Z,1.30
2022-08-19T12:24:33.317Z,1.45
2022-08-19T12:27:03.221Z,1.85
2022-08-19T12:29:31.100Z,1.50
2022-08-19T12:32:00.277Z,1.90
2022-08-19T12:34:29.499Z,2.33
2022-08-19T12:36:59.675Z,2.45
2022-08-19T12:39:27.009Z,2.63
2022-08-19T12:41:55.227Z,1.98
2022-08-19T12:44:28.943Z,2.00
2022-08-19T12:46:58.263Z,2.00
2022-08-19T12:49:51.996Z,1.73
2022-08-19T12:52:13.279Z,1.67
2022-08-19T12:54:41.606Z,1.80
2022-08-19T12:57:10.564Z,1.50
2022-08-19T12:59:39.400Z,1.80
2022-08-19T13:02:08.766Z,1.75
2022-08-19T13:04:36.834Z,1.60
2022-08-19T13:07:04.595Z,1.75
2022-08-19T13:09:31.869Z,1.90
2022-08-19T13:11:59.049Z,1.92
2022-08-19T13:14:26.965Z,2.00
2022-08-19T13:16:54.333Z,1.83
2022-08-19T13:19:21.720Z,1.73
2022-08-19T13:21:52.211Z,1.50
2022-08-19T13:24:31.354Z,1.70
2022-08-19T13:27:01.900Z,1.70
2022-08-19T13:29:29.303Z,1.70
2022-08-19T13:31:56.417Z,1.40
2022-08-19T13:34:35.093Z,1.30
2022-08-19T13:37:04.703Z,1.53
2022-08-19T13:39:33.908Z,1.73
2022-08-19T13:42:02.136Z,1.77
2022-08-19T13:44:29.769Z,1.60
2022-08-19T13:47:03.861Z,1.60
2022-08-19T13:49:31.566Z,1.80
2022-08-19T13:51:59.389Z,1.60
2022-08-19T13:54:26.934Z,1.55
2022-08-19T13:56:54.185Z,1.97
2022-08-19T13:59:21.448Z,1.40
2022-08-19T14:01:48.758Z,1.65
2022-08-19T14:04:15.965Z,1.30
2022-08-19T14:06:43.103Z,1.60
2022-08-19T14:09:10.111Z,1.52
2022-08-19T14:11:37.374Z,1.40
2022-08-19T14:14:04.843Z,1.60
2022-08-19T14:16:32.179Z,1.38
2022-08-19T14:18:59.417Z,1.25
2022-08-19T14:21:27.056Z,1.42
2022-08-19T14:23:54.737Z,1.50
2022-08-19T14:26:23.664Z,1.30
2022-08-19T14:28:52.413Z,1.33
2022-08-19T14:31:21.165Z,1.40
2022-08-19T14:33:49.431Z,1.25
2022-08-19T14:36:16.869Z,1.30
2022-08-19T14:38:45.043Z,1.30
2022-08-19T14:41:23.095Z,1.48
2022-08-19T14:43:53.652Z,1.30
2022-08-19T14:46:25.190Z,1.45
2022-08-19T14:48:53.274Z,1.25
2022-08-19T14:51:23.858Z,1.20
2022-08-19T14:53:52.326Z,1.58
2022-08-19T14:56:24.739Z,1.30
2022-08-19T14:58:52.968Z,1.30
2022-08-19T15:01:23.604Z,1.20
2022-08-19T15:03:51.911Z,1.20
2022-08-19T15:06:19.227Z,2.38
2022-08-19T15:08:49.028Z,2.55
2022-08-19T15:11:19.624Z,2.10
2022-08-19T15:13:46.840Z,2.40
2022-08-19T15:16:18.116Z,2.20
2022-08-19T15:18:49.716Z,2.28
2022-08-19T15:21:17.794Z,1.88
2022-08-19T15:23:56.591Z,2.10
2022-08-19T15:26:24.314Z,2.10
2022-08-19T15:28:51.826Z,2.25
2022-08-19T15:31:28.046Z,2.10
2022-08-19T15:33:58.031Z,2.72
2022-08-19T15:36:25.410Z,3.05
2022-08-19T15:38:53.289Z,3.33
2022-08-19T15:41:27.016Z,3.80
2022-08-19T15:44:05.298Z,3.60
2022-08-19T15:46:35.489Z,2.58
2022-08-19T15:49:02.704Z,3.67
2022-08-19T15:51:33.699Z,2.38
2022-08-19T15:54:05.434Z,2.20
2022-08-19T15:56:33.098Z,2.40
2022-08-19T15:59:00.456Z,2.63
2022-08-19T16:01:27.928Z,2.08
2022-08-19T16:03:58.285Z,2.33
2022-08-19T16:10:37.196Z,2.03
2022-08-19T16:13:28.436Z,2.20
2022-08-19T16:16:01.844Z,2.13
2022-08-19T16:19:23.596Z,2.10
2022-08-19T16:26:09.194Z,2.30
2022-08-19T16:32:36.176Z,2.25
2022-08-19T16:35:06.750Z,2.30
2022-08-19T16:37:34.107Z,2.33
2022-08-19T16:40:01.402Z,2.10
2022-08-19T16:50:25.398Z,2.00
2022-08-19T16:53:00.807Z,1.90
2022-08-19T16:55:28.333Z,1.80
2022-08-19T16:57:55.714Z,2.03
2022-08-19T17:00:28.976Z,1.90
2022-08-19T17:02:56.312Z,1.90
2022-08-19T17:05:23.716Z,2.00
2022-08-19T17:07:52.080Z,2.20
2022-08-19T17:10:19.382Z,2.00
2022-08-19T17:12:46.651Z,1.85
2022-08-19T17:15:13.843Z,1.93
2022-08-19T17:17:41.100Z,1.97
2022-08-19T17:20:08.937Z,2.33
2022-08-19T17:22:36.475Z,2.20
2022-08-19T17:25:04.553Z,2.33
2022-08-19T17:27:34.015Z,1.80
2022-08-19T17:30:04.817Z,2.00
2022-08-19T17:36:42.144Z,1.90
2022-08-19T17:40:03.434Z,2.23
2022-08-19T17:46:31.510Z,2.40
2022-08-19T18:01:18.954Z,2.00
2022-08-19T18:03:49.456Z,2.23
2022-08-19T18:11:22.850Z,2.30
2022-08-19T18:13:55.851Z,2.37
2022-08-19T18:16:23.362Z,2.80
2022-08-19T18:18:51.011Z,3.27
2022-08-19T18:21:18.562Z,3.03
2022-08-19T18:31:28.752Z,2.60
2022-08-19T18:33:56.381Z,2.20
2022-08-19T18:40:19.243Z,2.40
2022-08-19T18:42:47.415Z,2.30
2022-08-19T18:48:38.755Z,2.10
2022-08-19T19:02:22.782Z,2.40
2022-08-19T19:05:30.822Z,2.40
2022-08-19T19:07:58.008Z,2.10
2022-08-19T19:10:25.201Z,2.20
2022-08-19T19:17:06.784Z,2.50
2022-08-19T19:23:34.029Z,2.20
2022-08-19T19:26:05.067Z,2.10
2022-08-19T19:29:10.026Z,2.40
2022-08-19T19:31:37.421Z,2.13
2022-08-19T19:38:04.202Z,2.23
2022-08-19T19:44:32.466Z,2.23
2022-08-19T19:50:59.209Z,2.40
2022-08-19T19:53:29.403Z,2.40
2022-08-19T19:56:01.199Z,2.63
2022-08-19T19:58:31.337Z,2.20
2022-08-19T20:01:21.702Z,2.20
2022-08-19T20:03:51.600Z,2.20
2022-08-19T20:06:19.744Z,2.70
2022-08-19T20:08:47.957Z,2.20
2022-08-19T20:11:30.630Z,2.47
2022-08-19T20:13:59.862Z,2.20
2022-08-19T20:16:28.933Z,2.23
2022-08-19T20:22:48.395Z,2.50
2022-08-19T20:28:57.159Z,2.30
2022-08-19T20:36:03.381Z,2.47
2022-08-19T20:39:10.167Z,2.30
2022-08-19T20:41:38.218Z,2.00
2022-08-19T20:44:06.457Z,2.40
2022-08-19T20:50:25.332Z,2.70
2022-08-19T20:52:53.804Z,2.63
2022-08-19T20:58:57.973Z,3.13
2022-08-19T21:05:00.334Z,3.03
2022-08-19T21:11:20.566Z,3.20
2022-08-19T21:13:48.580Z,2.70
2022-08-19T21:20:05.371Z,2.70
2022-08-19T21:22:32.893Z,2.30
2022-08-19T21:25:00.397Z,2.53
2022-08-19T21:31:19.332Z,2.50
2022-08-19T21:33:46.874Z,2.40
2022-08-19T21:36:14.374Z,2.97
2022-08-19T21:38:41.937Z,2.40
2022-08-19T21:41:09.597Z,2.80
2022-08-19T21:43:38.193Z,2.77
2022-08-19T21:46:08.715Z,2.50
2022-08-19T21:56:18.634Z,2.50
2022-08-19T21:58:46.136Z,2.73
2022-08-19T22:04:55.652Z,2.50
2022-08-19T22:11:14.261Z,2.20
2022-08-19T22:17:23.467Z,2.47
2022-08-19T22:19:51.437Z,2.50
2022-08-19T22:22:26.839Z,3.20
2022-08-19T22:28:36.449Z,2.47
2022-08-19T22:31:05.563Z,2.57
2022-08-19T22:33:51.683Z,2.33
2022-08-19T22:36:19.357Z,2.83
2022-08-19T22:42:39.304Z,2.43
2022-08-19T22:45:09.840Z,2.30
2022-08-19T22:47:39.487Z,2.40
2022-08-19T22:50:09.026Z,2.50
2022-08-19T22:52:41.705Z,2.50
2022-08-19T22:59:00.777Z,2.10
2022-08-19T23:05:10.827Z,2.17
2022-08-19T23:07:38.760Z,2.10
2022-08-19T23:13:57.647Z,2.37
2022-08-19T23:16:25.159Z,2.17
2022-08-19T23:18:55.953Z,2.37
2022-08-19T23:21:23.897Z,2.33
2022-08-19T23:23:51.460Z,2.00
2022-08-19T23:30:00.365Z,2.70
2022-08-19T23:36:12.963Z,2.00
2022-08-19T23:38:43.367Z,2.03
2022-08-19T23:41:13.018Z,2.33
2022-08-19T23:43:41.982Z,2.30
2022-08-19T23:46:12.468Z,2.20
2022-08-19T23:48:40.623Z,1.97
2022-08-19T23:51:10.954Z,2.10
2022-08-19T23:53:40.253Z,1.90
2022-08-19T23:56:09.576Z,2.87
2022-08-19T23:58:38.517Z,2.10
